»·PEaware :: VRD638 KRNO-KSFO

VRD638 :: KRNO-KSFO

FLIGHT INFORMATION

Flight Status: Arrived
Operator:
Virgin America
More flights by this operator :: More flights under this callsign
Pilot: Pratham R. (19019)
Aircraft: AIRBUS A320
(A320)
More flights by this aircraft type
Origin: KRNO Reno/Tahoe Intl
United States
Destination: KSFO San Francisco Intl
United States
More flights between these airports :: More routes between these airports
Route: PVINE3 CRDDZ LEGGS BDEGA3
File this flight plan on PilotEdge
Remarks: RMK / SIMBRIEF
Altitude:
(Current/Filed)
30,000ft
Speed:
(Current/Filed)
463kts
Departed: 06-Aug-19 10:06 PM
Arrived: 06-Aug-19 10:56 PM
Distance/Time
Traveled:
167nm/0:50
Distance/Time
To Go:
Arrived

Flight Plot

Page will automatically refresh every two minutes.

Flight plan parsing failed; only flown route is shown


Map Options




Map Legend


Flown Route
Filed Route
Departure Airport
Arrival Airport
Navaid (VOR, NDB)
Fix

Horizontal Profiles

Position Reports

Time Latitude Longitude Heading Altitude Ground
Speed
06-Aug-19 21:33 39.505232 -119.773664 180 4416ft 0kts
06-Aug-19 21:34 39.505232 -119.773664 180 4416ft 0kts
06-Aug-19 21:35 39.505232 -119.773664 180 4416ft 0kts
06-Aug-19 21:36 39.505232 -119.773664 180 4416ft 0kts
06-Aug-19 21:37 39.505232 -119.773664 180 4416ft 0kts
06-Aug-19 21:38 39.505232 -119.773664 180 4416ft 0kts
06-Aug-19 21:39 39.505232 -119.773664 180 4416ft 0kts
06-Aug-19 21:40 39.505232 -119.773664 180 4416ft 0kts
06-Aug-19 21:41 39.505232 -119.773664 180 4416ft 0kts
06-Aug-19 21:42 39.505232 -119.773664 180 4416ft 0kts
06-Aug-19 21:43 39.505232 -119.773664 180 4416ft 0kts
06-Aug-19 21:44 39.505232 -119.773664 180 4416ft 0kts
06-Aug-19 21:45 39.505232 -119.773664 180 4416ft 0kts
06-Aug-19 21:46 39.505232 -119.773664 180 4416ft 0kts
06-Aug-19 21:47 39.505232 -119.773664 180 4416ft 0kts
06-Aug-19 21:48 39.505232 -119.773664 180 4416ft 0kts
06-Aug-19 21:49 39.505232 -119.773664 180 4416ft 0kts
06-Aug-19 21:50 39.505232 -119.773664 180 4416ft 0kts
06-Aug-19 21:51 39.505232 -119.773664 180 4416ft 0kts
06-Aug-19 21:52 39.505232 -119.773664 180 4416ft 0kts
06-Aug-19 21:53 39.505233 -119.773664 180 4416ft 0kts
06-Aug-19 21:54 39.505773 -119.773656 180 4416ft 1kts
06-Aug-19 21:55 39.505925 -119.773874 88 4417ft 0kts
06-Aug-19 21:56 39.505925 -119.773873 88 4417ft 0kts
06-Aug-19 21:57 39.505925 -119.773873 88 4417ft 0kts
06-Aug-19 21:58 39.505925 -119.773873 88 4417ft 0kts
06-Aug-19 21:59 39.505920 -119.772778 89 4414ft 8kts
06-Aug-19 22:00 39.503078 -119.771500 179 4412ft 24kts
06-Aug-19 22:01 39.496230 -119.771530 181 4412ft 25kts
06-Aug-19 22:02 39.489271 -119.771529 178 4412ft 18kts
06-Aug-19 22:03 39.484615 -119.771571 179 4419ft 14kts
06-Aug-19 22:04 39.484143 -119.769301 10 4420ft 11kts
06-Aug-19 22:05 39.511238 -119.768817 358 5048ft 183kts
06-Aug-19 22:06 39.566537 -119.766624 358 7496ft 243kts
06-Aug-19 22:07 39.622025 -119.821274 295 9934ft 298kts
06-Aug-19 22:08 39.660351 -119.923804 287 12243ft 353kts
06-Aug-19 22:09 39.647558 -120.033198 247 14657ft 364kts
06-Aug-19 22:10 39.614813 -120.145800 247 17261ft 372kts
06-Aug-19 22:11 39.572903 -120.290818 246 20137ft 382kts
06-Aug-19 22:12 39.535072 -120.421289 245 22310ft 392kts
06-Aug-19 22:13 39.496423 -120.553940 245 24267ft 400kts
06-Aug-19 22:14 39.469492 -120.645997 244 25439ft 406kts
06-Aug-19 22:15 39.447610 -120.720558 244 26339ft 411kts
06-Aug-19 22:16 39.417873 -120.821542 244 27436ft 417kts
06-Aug-19 22:17 39.385578 -120.930792 243 28513ft 424kts
06-Aug-19 22:18 39.352156 -121.043376 243 29463ft 431kts
06-Aug-19 22:19 39.300938 -121.150928 225 30103ft 418kts
06-Aug-19 22:20 39.224104 -121.268617 225 30053ft 421kts
06-Aug-19 22:21 39.148235 -121.384686 225 29946ft 421kts
06-Aug-19 22:22 39.091932 -121.470555 225 29900ft 421kts
06-Aug-19 22:23 39.037142 -121.553902 225 29910ft 421kts
06-Aug-19 22:24 38.975356 -121.647650 225 29914ft 421kts
06-Aug-19 22:25 38.901335 -121.759437 224 29921ft 420kts
06-Aug-19 22:26 38.835794 -121.858222 224 29931ft 420kts
06-Aug-19 22:27 38.765130 -121.964375 224 29934ft 419kts
06-Aug-19 22:28 38.690326 -122.076353 224 29928ft 419kts
06-Aug-19 22:30 38.615126 -122.188528 224 29929ft 419kts
06-Aug-19 22:31 38.538538 -122.302370 224 29692ft 420kts
06-Aug-19 22:32 38.461444 -122.416584 224 27735ft 397kts
06-Aug-19 22:33 38.395372 -122.514690 224 25935ft 378kts
06-Aug-19 22:34 38.335503 -122.603516 224 24196ft 363kts
06-Aug-19 22:35 38.264351 -122.708730 224 22083ft 347kts
06-Aug-19 22:36 38.178492 -122.754623 168 20087ft 323kts
06-Aug-19 22:37 38.107671 -122.733619 167 18644ft 312kts
06-Aug-19 22:38 38.037086 -122.712992 167 17209ft 307kts
06-Aug-19 22:39 37.947539 -122.687036 167 15363ft 301kts
06-Aug-19 22:40 37.874145 -122.646561 141 13723ft 302kts
06-Aug-19 22:41 37.816439 -122.585178 141 12223ft 297kts
06-Aug-19 22:42 37.763328 -122.528880 141 11270ft 281kts
06-Aug-19 22:43 37.708679 -122.470935 141 11031ft 281kts
06-Aug-19 22:44 37.650701 -122.409333 141 11019ft 282kts
06-Aug-19 22:45 37.586876 -122.353580 155 11008ft 278kts
06-Aug-19 22:46 37.522558 -122.313895 155 9635ft 276kts
06-Aug-19 22:47 37.460358 -122.274963 156 8178ft 277kts
06-Aug-19 22:48 37.423921 -122.209392 77 6758ft 272kts
06-Aug-19 22:49 37.453541 -122.132228 44 4842ft 254kts
06-Aug-19 22:49 37.495860 -122.130601 307 4121ft 205kts
06-Aug-19 22:51 37.539238 -122.187620 301 2934ft 203kts
06-Aug-19 22:51 37.560134 -122.235351 296 2221ft 178kts
06-Aug-19 22:53 37.584537 -122.293660 295 1169ft 139kts
06-Aug-19 22:53 37.598232 -122.326461 294 607ft 132kts
06-Aug-19 22:54 37.613657 -122.362986 294 13ft 123kts
06-Aug-19 22:56 37.618968 -122.377815 265 28ft 13kts
06-Aug-19 22:56 37.618028 -122.380089 230 32ft 5kts
06-Aug-19 22:57 37.617861 -122.380649 256 32ft 0kts
06-Aug-19 22:58 37.617861 -122.380649 256 32ft 0kts

Navigation Log

Ident Type
Flight plan parsing failed, navigation log unavailable